createdAt,value
2018-01-26T00:00:03.512Z,13.62
2018-01-26T00:02:31.651Z,12.80
2018-01-26T00:05:00.059Z,12.79
2018-01-26T00:07:28.501Z,13.43
2018-01-26T00:09:56.896Z,13.43
2018-01-26T00:12:25.307Z,13.56
2018-01-26T00:14:53.714Z,13.02
2018-01-26T00:17:22.100Z,13.36
2018-01-26T00:19:50.730Z,12.88
2018-01-26T00:22:19.210Z,12.83
2018-01-26T00:24:47.664Z,12.57
2018-01-26T00:27:16.039Z,13.02
2018-01-26T00:29:44.404Z,12.67
2018-01-26T00:32:12.843Z,12.78
2018-01-26T00:34:41.208Z,12.76
2018-01-26T00:37:09.982Z,11.45
2018-01-26T00:39:38.342Z,11.55
2018-01-26T00:42:06.734Z,11.96
2018-01-26T00:44:35.199Z,11.92
2018-01-26T00:47:03.573Z,12.43
2018-01-26T00:49:32.270Z,12.47
2018-01-26T00:52:00.668Z,12.47
2018-01-26T00:54:29.163Z,12.63
2018-01-26T00:56:57.515Z,13.18
2018-01-26T00:59:26.214Z,13.22
2018-01-26T01:01:54.592Z,12.98
2018-01-26T01:04:23.060Z,13.15
2018-01-26T01:06:51.440Z,13.54
2018-01-26T01:09:19.818Z,12.88
2018-01-26T01:11:48.274Z,12.92
2018-01-26T01:14:16.654Z,11.91
2018-01-26T01:16:45.054Z,12.62
2018-01-26T01:19:13.432Z,12.52
2018-01-26T01:21:41.791Z,12.78
2018-01-26T01:24:10.243Z,13.15
2018-01-26T01:26:38.638Z,13.13
2018-01-26T01:29:07.003Z,13.34
2018-01-26T01:31:35.377Z,13.26
2018-01-26T01:34:03.770Z,13.21
2018-01-26T01:36:32.490Z,13.47
2018-01-26T01:39:00.886Z,13.27
2018-01-26T01:41:29.254Z,13.41
2018-01-26T01:43:57.686Z,13.03
2018-01-26T01:46:26.126Z,13.32
2018-01-26T01:49:06.292Z,13.04
2018-01-26T01:51:35.038Z,13.13
2018-01-26T01:54:03.494Z,13.11
2018-01-26T01:56:31.889Z,13.15
2018-01-26T01:59:00.273Z,12.91
2018-01-26T02:01:28.943Z,13.06
2018-01-26T02:03:57.318Z,12.98
2018-01-26T02:06:25.703Z,13.13
2018-01-26T02:08:54.090Z,13.11
2018-01-26T02:11:22.478Z,13.29
2018-01-26T02:13:51.191Z,12.98
2018-01-26T02:16:23.009Z,13.10
2018-01-26T02:18:51.501Z,13.05
2018-01-26T02:21:19.863Z,12.52
2018-01-26T02:24:05.675Z,12.87
2018-01-26T02:26:39.907Z,12.77
2018-01-26T02:29:08.365Z,12.82
2018-01-26T02:31:36.830Z,13.18
2018-01-26T02:34:05.647Z,13.12
2018-01-26T02:36:34.052Z,13.29
2018-01-26T02:39:02.418Z,13.37
2018-01-26T02:41:30.892Z,13.39
2018-01-26T02:43:59.274Z,13.30
2018-01-26T02:46:28.043Z,12.89
2018-01-26T02:48:56.436Z,12.97
2018-01-26T02:51:24.819Z,13.18
2018-01-26T02:53:53.219Z,12.94
2018-01-26T02:56:21.639Z,12.62
2018-01-26T02:58:50.299Z,12.39
2018-01-26T03:01:18.683Z,12.64
2018-01-26T03:03:47.107Z,12.75
2018-01-26T03:06:15.487Z,12.95
2018-01-26T03:08:43.846Z,13.02
2018-01-26T03:11:12.552Z,13.01
2018-01-26T03:13:41.027Z,12.90
2018-01-26T03:16:09.379Z,13.05
2018-01-26T03:18:37.784Z,13.47
2018-01-26T03:21:06.522Z,13.35
2018-01-26T03:23:34.913Z,13.78
2018-01-26T03:26:03.296Z,13.26
2018-01-26T03:28:31.676Z,13.28
2018-01-26T03:31:00.064Z,13.37
2018-01-26T03:33:28.582Z,12.89
2018-01-26T03:35:57.022Z,13.37
2018-01-26T03:38:25.426Z,13.12
2018-01-26T03:40:53.863Z,13.24
2018-01-26T03:43:22.238Z,13.03
2018-01-26T03:45:50.650Z,12.04
2018-01-26T03:48:19.049Z,12.10
2018-01-26T03:50:47.399Z,12.42
2018-01-26T03:53:16.183Z,12.78
2018-01-26T03:55:44.550Z,12.88
2018-01-26T03:58:12.929Z,12.97
2018-01-26T04:00:41.629Z,13.12
2018-01-26T04:03:09.992Z,13.13
2018-01-26T04:05:38.394Z,13.00
2018-01-26T04:08:07.215Z,13.38
2018-01-26T04:10:35.606Z,13.43
2018-01-26T04:13:04.009Z,13.37
2018-01-26T04:15:32.396Z,13.43
2018-01-26T04:18:00.775Z,13.30
2018-01-26T04:20:29.182Z,13.46
2018-01-26T04:22:57.882Z,13.49
2018-01-26T04:25:26.360Z,13.36
2018-01-26T04:27:54.755Z,13.17
2018-01-26T04:30:23.273Z,13.23
2018-01-26T04:32:51.664Z,13.29
2018-01-26T04:35:20.094Z,13.22
2018-01-26T04:37:48.446Z,13.24
2018-01-26T04:40:16.882Z,13.43
2018-01-26T04:42:45.320Z,13.00
2018-01-26T04:45:13.712Z,13.23
2018-01-26T04:47:42.091Z,12.66
2018-01-26T04:50:10.482Z,12.69
2018-01-26T04:52:38.886Z,13.31
2018-01-26T04:55:07.294Z,13.30
2018-01-26T04:57:35.795Z,12.98
2018-01-26T05:00:04.164Z,13.47
2018-01-26T05:02:32.552Z,13.30
2018-01-26T05:05:00.958Z,13.47
2018-01-26T05:07:29.383Z,13.61
2018-01-26T05:09:57.835Z,13.59
2018-01-26T05:12:26.233Z,13.35
2018-01-26T05:14:54.685Z,13.45
2018-01-26T05:17:23.097Z,13.18
2018-01-26T05:19:51.494Z,13.20
2018-01-26T05:22:20.230Z,13.21
2018-01-26T05:24:48.734Z,13.31
2018-01-26T05:27:17.136Z,13.57
2018-01-26T05:29:45.526Z,13.55
2018-01-26T05:32:13.970Z,13.52
2018-01-26T05:34:42.356Z,13.75
2018-01-26T05:37:10.763Z,13.41
2018-01-26T05:39:39.202Z,12.99
2018-01-26T05:42:07.613Z,13.13
2018-01-26T05:44:36.076Z,13.38
2018-01-26T05:47:04.486Z,13.33
2018-01-26T05:49:32.843Z,13.27
2018-01-26T05:52:01.241Z,13.23
2018-01-26T05:54:29.634Z,13.18
2018-01-26T05:56:58.103Z,13.31
2018-01-26T05:59:26.544Z,12.96
2018-01-26T06:01:54.932Z,12.75
2018-01-26T06:07:23.585Z,13.04
2018-01-26T06:09:51.985Z,12.69
2018-01-26T06:12:20.481Z,12.71
2018-01-26T06:14:48.878Z,12.56
2018-01-26T06:17:17.358Z,12.56
2018-01-26T06:19:46.050Z,11.99
2018-01-26T06:22:14.446Z,12.09
2018-01-26T06:24:42.907Z,11.83
2018-01-26T06:27:11.314Z,12.07
2018-01-26T06:29:39.726Z,12.19
2018-01-26T06:32:08.422Z,12.39
2018-01-26T06:34:36.811Z,12.74
2018-01-26T06:37:05.204Z,12.64
2018-01-26T06:39:33.599Z,12.62
2018-01-26T06:42:01.998Z,12.09
2018-01-26T06:44:30.470Z,11.60
2018-01-26T06:46:58.855Z,11.57
2018-01-26T06:49:27.307Z,11.46
2018-01-26T06:51:55.758Z,11.49
2018-01-26T06:54:24.150Z,11.61
2018-01-26T06:56:52.692Z,11.96
2018-01-26T06:59:21.088Z,12.12
2018-01-26T07:01:49.480Z,11.88
2018-01-26T07:04:17.870Z,11.35
2018-01-26T07:06:46.289Z,12.42
2018-01-26T07:09:14.983Z,12.49
2018-01-26T07:11:43.383Z,12.42
2018-01-26T07:14:11.798Z,12.45
2018-01-26T07:16:40.266Z,12.43
2018-01-26T07:19:08.686Z,12.63
2018-01-26T07:21:37.134Z,12.50
2018-01-26T07:24:05.547Z,12.41
2018-01-26T07:26:33.985Z,12.02
2018-01-26T07:29:02.378Z,12.07
2018-01-26T07:31:30.793Z,11.60
2018-01-26T07:33:59.248Z,11.26
2018-01-26T07:36:27.644Z,11.47
2018-01-26T07:38:56.034Z,11.60
2018-01-26T07:41:24.434Z,11.79
2018-01-26T07:43:52.845Z,11.75
2018-01-26T07:46:21.610Z,11.57
2018-01-26T07:48:50.014Z,11.50
2018-01-26T07:51:18.419Z,11.38
2018-01-26T07:53:46.839Z,11.71
2018-01-26T07:56:15.230Z,11.95
2018-01-26T07:58:43.676Z,11.87
2018-01-26T08:01:12.082Z,12.18
2018-01-26T08:03:40.558Z,12.19
2018-01-26T08:06:08.956Z,11.75
2018-01-26T08:08:37.351Z,11.46
2018-01-26T08:11:05.803Z,11.33
2018-01-26T08:13:34.202Z,11.68
2018-01-26T08:16:15.449Z,11.90
2018-01-26T08:18:43.926Z,12.34
2018-01-26T08:21:12.334Z,12.51
2018-01-26T08:23:40.747Z,12.20
2018-01-26T08:26:09.202Z,12.22
2018-01-26T08:28:37.649Z,12.28
2018-01-26T08:31:06.034Z,11.70
2018-01-26T08:33:34.438Z,12.32
2018-01-26T08:36:02.867Z,12.86
2018-01-26T08:38:31.272Z,12.93
2018-01-26T08:41:00.043Z,12.84
2018-01-26T08:43:29.986Z,13.09
2018-01-26T08:45:58.395Z,12.36
2018-01-26T08:48:26.800Z,13.24
2018-01-26T08:50:55.241Z,13.39
2018-01-26T08:53:23.963Z,12.97
2018-01-26T08:55:52.353Z,12.79
2018-01-26T08:58:20.754Z,13.86
2018-01-26T09:00:49.138Z,14.22
2018-01-26T09:03:17.602Z,14.37
2018-01-26T09:05:46.210Z,14.49
2018-01-26T09:08:14.603Z,14.66
2018-01-26T09:10:43.000Z,13.36
2018-01-26T09:13:11.407Z,14.31
2018-01-26T09:15:39.827Z,14.19
2018-01-26T09:18:08.276Z,14.22
2018-01-26T09:20:36.730Z,14.36
2018-01-26T09:23:05.085Z,14.86
2018-01-26T09:25:33.559Z,15.42
2018-01-26T09:28:01.981Z,14.87
2018-01-26T09:30:30.700Z,14.88
2018-01-26T09:32:59.067Z,14.78
2018-01-26T09:35:27.467Z,14.49
2018-01-26T09:37:55.923Z,14.51
2018-01-26T09:40:24.328Z,13.56
2018-01-26T09:42:53.065Z,14.24
2018-01-26T09:45:21.458Z,14.02
2018-01-26T09:47:49.863Z,13.27
2018-01-26T09:50:20.974Z,13.47
2018-01-26T09:52:49.362Z,13.37
2018-01-26T09:55:17.808Z,14.08
2018-01-26T09:57:46.189Z,14.50
2018-01-26T10:00:14.633Z,15.00
2018-01-26T10:02:43.098Z,15.08
2018-01-26T10:05:11.548Z,14.56
2018-01-26T10:07:40.204Z,15.55
2018-01-26T10:10:08.595Z,15.92
2018-01-26T10:12:37.017Z,16.19
2018-01-26T10:15:05.496Z,16.28
2018-01-26T10:17:33.898Z,16.36
2018-01-26T10:20:02.615Z,16.69
2018-01-26T10:22:31.008Z,16.25
2018-01-26T10:24:59.382Z,16.16
2018-01-26T10:27:27.787Z,16.11
2018-01-26T10:29:56.178Z,15.28
2018-01-26T10:32:24.719Z,14.38
2018-01-26T10:34:53.123Z,14.49
2018-01-26T10:37:21.537Z,14.13
2018-01-26T10:39:49.945Z,15.02
2018-01-26T10:42:18.402Z,15.01
2018-01-26T10:44:46.874Z,14.09
2018-01-26T10:47:15.279Z,14.40
2018-01-26T10:49:43.672Z,13.78
2018-01-26T10:52:12.079Z,14.63
2018-01-26T10:54:40.463Z,14.43
2018-01-26T10:57:09.074Z,13.93
2018-01-26T10:59:37.462Z,14.33
2018-01-26T11:02:05.843Z,14.92
2018-01-26T11:04:34.240Z,14.91
2018-01-26T11:07:02.640Z,15.45
2018-01-26T11:09:31.454Z,14.74
2018-01-26T11:11:59.911Z,14.22
2018-01-26T11:14:28.314Z,14.16
2018-01-26T11:16:56.715Z,14.50
2018-01-26T11:19:25.214Z,14.70
2018-01-26T11:21:53.657Z,14.19
2018-01-26T11:24:22.039Z,14.56
2018-01-26T11:26:50.435Z,14.41
2018-01-26T11:29:18.838Z,14.68
2018-01-26T11:31:47.234Z,14.83
2018-01-26T11:34:15.695Z,14.38
2018-01-26T11:36:44.083Z,14.61
2018-01-26T11:39:12.546Z,14.59
2018-01-26T11:41:40.931Z,15.01
2018-01-26T11:44:09.347Z,15.02
2018-01-26T11:46:38.140Z,15.29
2018-01-26T11:49:06.632Z,15.52
2018-01-26T11:51:36.010Z,15.49
2018-01-26T11:54:04.407Z,14.25
2018-01-26T11:56:32.807Z,14.82
2018-01-26T11:59:01.319Z,14.78
2018-01-26T12:01:29.710Z,14.94
2018-01-26T12:03:58.121Z,14.08
2018-01-26T12:06:26.522Z,14.12
2018-01-26T12:08:54.920Z,14.44
2018-01-26T12:11:23.743Z,14.65
2018-01-26T12:13:52.219Z,14.88
2018-01-26T12:16:20.615Z,15.04
2018-01-26T12:18:49.031Z,15.32
2018-01-26T12:21:17.422Z,14.87
2018-01-26T12:23:45.880Z,15.26
2018-01-26T12:26:14.302Z,15.36
2018-01-26T12:28:42.707Z,15.12
2018-01-26T12:31:11.182Z,15.18
2018-01-26T12:33:39.571Z,15.37
2018-01-26T12:36:08.367Z,15.73
2018-01-26T12:38:36.760Z,14.84
2018-01-26T12:41:05.215Z,15.33
2018-01-26T12:43:33.586Z,15.30
2018-01-26T12:46:01.979Z,14.98
2018-01-26T12:48:30.822Z,15.04
2018-01-26T12:50:59.263Z,14.53
2018-01-26T12:53:27.693Z,14.82
2018-01-26T12:55:56.083Z,15.06
2018-01-26T12:58:24.485Z,14.67
2018-01-26T13:00:54.017Z,14.95
2018-01-26T13:03:22.412Z,15.20
2018-01-26T13:05:50.817Z,15.31
2018-01-26T13:08:19.257Z,15.41
2018-01-26T13:10:47.655Z,14.89
2018-01-26T13:13:16.263Z,15.46
2018-01-26T13:15:44.660Z,15.28
2018-01-26T13:18:13.079Z,15.08
2018-01-26T13:20:41.466Z,15.68
2018-01-26T13:23:09.951Z,15.38
2018-01-26T13:25:38.399Z,15.56
2018-01-26T13:28:06.792Z,15.78
2018-01-26T13:30:35.197Z,15.54
2018-01-26T13:33:03.578Z,15.95
2018-01-26T13:35:31.990Z,16.96
2018-01-26T13:38:00.447Z,16.48
2018-01-26T13:40:28.931Z,16.42
2018-01-26T13:42:57.357Z,16.24
2018-01-26T13:45:25.763Z,16.23
2018-01-26T13:47:54.177Z,15.12
2018-01-26T13:50:22.970Z,15.27
2018-01-26T13:52:51.361Z,15.19
2018-01-26T13:55:19.767Z,15.11
2018-01-26T13:57:48.167Z,14.93
2018-01-26T14:00:16.579Z,14.44
2018-01-26T14:02:45.302Z,14.66
2018-01-26T14:05:13.696Z,14.86
2018-01-26T14:07:42.135Z,14.79
2018-01-26T14:10:10.543Z,15.51
2018-01-26T14:12:38.947Z,14.88
2018-01-26T14:15:07.641Z,14.87
2018-01-26T14:17:36.029Z,14.67
2018-01-26T14:20:04.427Z,14.89
2018-01-26T14:22:32.809Z,14.02
2018-01-26T14:25:01.198Z,14.61
2018-01-26T14:27:30.059Z,14.89
2018-01-26T14:29:58.454Z,14.79
2018-01-26T14:32:26.876Z,14.56
2018-01-26T14:34:55.270Z,14.56
2018-01-26T14:37:23.758Z,14.59
2018-01-26T14:39:52.492Z,14.94
2018-01-26T14:42:20.910Z,15.01
2018-01-26T14:44:49.290Z,14.68
2018-01-26T14:47:17.706Z,14.02
2018-01-26T14:49:46.116Z,14.08
2018-01-26T14:52:14.630Z,14.42
2018-01-26T14:54:43.023Z,14.13
2018-01-26T14:57:11.419Z,14.39
2018-01-26T14:59:39.826Z,14.31
2018-01-26T15:02:08.221Z,14.11
2018-01-26T15:04:36.943Z,14.84
2018-01-26T15:07:05.341Z,14.75
2018-01-26T15:09:33.743Z,14.74
2018-01-26T15:12:02.228Z,14.17
2018-01-26T15:14:30.656Z,13.55
2018-01-26T15:16:59.115Z,13.30
2018-01-26T15:19:27.532Z,13.33
2018-01-26T15:21:55.934Z,13.65
2018-01-26T15:24:24.349Z,13.43
2018-01-26T15:26:52.749Z,13.00
2018-01-26T15:29:21.235Z,13.34
2018-01-26T15:31:49.662Z,13.48
2018-01-26T15:34:18.068Z,13.42
2018-01-26T15:36:46.518Z,12.61
2018-01-26T15:39:16.770Z,13.31
2018-01-26T15:41:47.158Z,12.69
2018-01-26T15:44:15.562Z,12.27
2018-01-26T15:46:43.956Z,12.69
2018-01-26T15:49:12.357Z,13.13
2018-01-26T15:51:40.764Z,12.51
2018-01-26T15:54:09.534Z,11.86
2018-01-26T15:56:37.937Z,11.93
2018-01-26T15:59:06.530Z,11.87
2018-01-26T16:01:34.923Z,12.19
2018-01-26T16:04:03.415Z,12.25
2018-01-26T16:06:31.892Z,12.46
2018-01-26T16:09:00.313Z,12.35
2018-01-26T16:11:28.730Z,12.52
2018-01-26T16:13:57.143Z,12.56
2018-01-26T16:16:25.622Z,12.34
2018-01-26T16:18:54.102Z,11.92
2018-01-26T16:21:22.528Z,12.12
2018-01-26T16:23:50.918Z,11.65
2018-01-26T16:26:19.353Z,11.44
2018-01-26T16:28:47.746Z,11.68
2018-01-26T16:31:16.363Z,11.38
2018-01-26T16:33:44.763Z,11.42
2018-01-26T16:36:13.172Z,11.65
2018-01-26T16:38:41.554Z,12.13
2018-01-26T16:41:09.950Z,12.35
2018-01-26T16:43:38.418Z,12.40
2018-01-26T16:46:06.823Z,12.13
2018-01-26T16:48:35.283Z,11.58
2018-01-26T16:51:03.702Z,11.32
2018-01-26T16:53:32.090Z,10.85
2018-01-26T16:56:00.850Z,11.11
2018-01-26T16:58:29.292Z,11.45
2018-01-26T17:00:57.698Z,11.49
2018-01-26T17:03:26.114Z,11.68
2018-01-26T17:05:54.510Z,11.80
2018-01-26T17:08:23.226Z,11.87
2018-01-26T17:10:51.648Z,11.81
2018-01-26T17:13:20.054Z,11.54
2018-01-26T17:15:48.518Z,11.85
2018-01-26T17:18:16.922Z,11.66
2018-01-26T17:20:45.830Z,11.67
2018-01-26T17:23:14.240Z,11.83
2018-01-26T17:25:42.646Z,11.61
2018-01-26T17:28:11.083Z,11.81
2018-01-26T17:30:39.508Z,11.82
2018-01-26T17:33:08.062Z,11.78
2018-01-26T17:35:36.466Z,11.49
2018-01-26T17:38:05.278Z,11.14
2018-01-26T17:40:33.690Z,11.38
2018-01-26T17:43:02.200Z,11.40
2018-01-26T17:45:30.638Z,11.15
2018-01-26T17:47:59.026Z,10.75
2018-01-26T17:50:27.470Z,10.75
2018-01-26T17:52:55.868Z,11.13
2018-01-26T17:55:24.253Z,10.71
2018-01-26T17:57:52.682Z,10.78
2018-01-26T18:00:21.142Z,10.93
2018-01-26T18:02:49.957Z,10.23
2018-01-26T18:05:18.350Z,10.84
2018-01-26T18:07:46.757Z,10.75
2018-01-26T18:10:15.160Z,10.16
2018-01-26T18:12:43.632Z,10.14
2018-01-26T18:15:12.119Z,10.02
2018-01-26T18:17:40.606Z,10.21
2018-01-26T18:20:09.014Z,10.04
2018-01-26T18:25:37.798Z,10.13
2018-01-26T18:28:06.522Z,9.83
2018-01-26T18:30:34.904Z,9.92
2018-01-26T18:33:03.294Z,9.98
2018-01-26T18:35:31.700Z,10.21
2018-01-26T18:38:00.096Z,10.01
2018-01-26T18:40:28.493Z,9.73
2018-01-26T18:42:56.894Z,10.09
2018-01-26T18:45:27.715Z,10.11
2018-01-26T18:47:56.295Z,10.49
2018-01-26T18:50:24.802Z,10.24
2018-01-26T18:52:53.348Z,10.27
2018-01-26T18:55:21.855Z,10.54
2018-01-26T18:57:50.287Z,10.06
2018-01-26T19:00:18.747Z,10.43
2018-01-26T19:02:47.154Z,10.16
2018-01-26T19:05:15.564Z,10.53
2018-01-26T19:07:44.048Z,10.48
2018-01-26T19:10:12.455Z,10.38
2018-01-26T19:12:41.015Z,10.41
2018-01-26T19:15:10.093Z,10.37
2018-01-26T19:17:39.490Z,10.33
2018-01-26T19:20:08.307Z,10.28
2018-01-26T19:22:36.795Z,10.32
2018-01-26T19:25:05.206Z,10.40
2018-01-26T19:27:33.691Z,10.63
2018-01-26T19:30:02.095Z,10.56
2018-01-26T19:32:30.554Z,10.78
2018-01-26T19:34:58.988Z,10.85
2018-01-26T19:37:27.393Z,10.57
2018-01-26T19:39:56.079Z,10.56
2018-01-26T19:42:24.526Z,10.47
2018-01-26T19:44:52.932Z,10.19
2018-01-26T19:47:21.419Z,10.17
2018-01-26T19:49:49.835Z,10.50
2018-01-26T19:52:18.551Z,10.72
2018-01-26T19:54:46.962Z,10.76
2018-01-26T19:57:15.398Z,10.84
2018-01-26T19:59:43.843Z,10.69
2018-01-26T20:02:12.236Z,10.62
2018-01-26T20:04:46.364Z,10.78
2018-01-26T20:07:29.174Z,10.61
2018-01-26T20:09:57.978Z,10.95
2018-01-26T20:12:27.162Z,10.48
2018-01-26T20:14:55.628Z,10.38
2018-01-26T20:17:24.150Z,10.62
2018-01-26T20:19:52.606Z,10.79
2018-01-26T20:22:21.071Z,10.72
2018-01-26T20:24:49.566Z,10.41
2018-01-26T20:27:18.164Z,10.35
2018-01-26T20:29:46.662Z,10.29
2018-01-26T20:32:19.962Z,10.19
2018-01-26T20:34:48.458Z,10.77
2018-01-26T20:37:16.849Z,10.92
2018-01-26T20:39:45.215Z,10.41
2018-01-26T20:42:13.637Z,10.84
2018-01-26T20:44:42.039Z,10.98
2018-01-26T20:47:10.754Z,10.97
2018-01-26T20:49:39.241Z,10.57
2018-01-26T20:52:07.649Z,10.61
2018-01-26T20:54:36.380Z,11.15
2018-01-26T20:57:04.983Z,11.12
2018-01-26T20:59:33.403Z,10.76
2018-01-26T21:02:01.878Z,11.15
2018-01-26T21:04:30.304Z,11.45
2018-01-26T21:06:58.712Z,11.38
2018-01-26T21:09:27.467Z,11.87
2018-01-26T21:11:55.867Z,11.75
2018-01-26T21:14:24.387Z,11.69
2018-01-26T21:16:53.086Z,11.50
2018-01-26T21:19:21.502Z,11.57
2018-01-26T21:21:49.911Z,11.62
2018-01-26T21:24:18.604Z,11.46
2018-01-26T21:26:47.002Z,11.57
2018-01-26T21:29:15.402Z,11.50
2018-01-26T21:31:44.137Z,11.67
2018-01-26T21:34:12.595Z,11.83
2018-01-26T21:36:41.004Z,11.26
2018-01-26T21:39:09.859Z,11.81
2018-01-26T21:41:38.267Z,11.85
2018-01-26T21:44:06.669Z,11.56
2018-01-26T21:46:35.388Z,11.56
2018-01-26T21:49:03.782Z,11.53
2018-01-26T21:51:32.282Z,11.50
2018-01-26T21:54:00.861Z,12.04
2018-01-26T21:56:29.311Z,11.53
2018-01-26T21:58:57.728Z,11.70
2018-01-26T22:01:26.435Z,12.06
2018-01-26T22:03:54.830Z,11.89
2018-01-26T22:06:29.875Z,11.68
2018-01-26T22:08:58.306Z,11.84
2018-01-26T22:11:26.713Z,12.09
2018-01-26T22:13:55.533Z,12.20
2018-01-26T22:16:23.950Z,12.14
2018-01-26T22:18:52.342Z,11.82
2018-01-26T22:21:20.895Z,11.44
2018-01-26T22:23:49.291Z,12.07
2018-01-26T22:26:17.659Z,11.71
2018-01-26T22:28:46.145Z,12.19
2018-01-26T22:31:14.546Z,12.48
2018-01-26T22:33:43.160Z,12.42
2018-01-26T22:36:11.561Z,12.27
2018-01-26T22:38:39.967Z,12.59
2018-01-26T22:41:08.684Z,12.55
2018-01-26T22:43:37.103Z,12.35
2018-01-26T22:46:05.534Z,12.25
2018-01-26T22:48:34.218Z,12.61
2018-01-26T22:51:02.631Z,12.34
2018-01-26T22:53:31.043Z,12.56
2018-01-26T22:55:59.728Z,12.34
2018-01-26T22:58:28.187Z,12.44
2018-01-26T23:00:56.628Z,12.48
2018-01-26T23:03:25.524Z,12.33
2018-01-26T23:05:53.944Z,12.03
2018-01-26T23:08:22.326Z,11.67
2018-01-26T23:10:51.065Z,11.85
2018-01-26T23:13:19.474Z,11.80
2018-01-26T23:15:47.857Z,11.53
2018-01-26T23:18:16.227Z,12.10
2018-01-26T23:20:44.599Z,12.18
2018-01-26T23:23:12.970Z,12.24
2018-01-26T23:25:41.341Z,12.41
2018-01-26T23:28:09.717Z,12.33
2018-01-26T23:30:38.102Z,12.16
2018-01-26T23:33:06.483Z,12.23
2018-01-26T23:35:34.867Z,12.34
2018-01-26T23:38:03.383Z,12.35
2018-01-26T23:40:31.846Z,12.10
2018-01-26T23:43:00.275Z,12.59
2018-01-26T23:45:29.007Z,12.32
2018-01-26T23:47:57.427Z,12.21
2018-01-26T23:50:25.916Z,12.31
2018-01-26T23:52:54.378Z,12.25
2018-01-26T23:55:22.824Z,12.44
2018-01-26T23:57:51.242Z,12.40
